Time;durP1;ratioP1;P1;durP2;ratioP2;P2;SDS_P1;SDS_P2;PMS_P1;PMS_P2;Temp;Humidity;BMP_temperature;BMP_pressure;BME280_temperature;BME280_humidity;BME280_pressure;Samples;Min_cycle;Max_cycle;Signal;HPM_P1;HPM_P2
2021/06/12 00:00:10;;;;;;;1.88;1.77;;;;;;;;;;5080443;28;20721;-85
2021/06/12 00:02:37;;;;;;;1.85;1.75;;;;;;;;;;5080546;28;20209;-86
2021/06/12 00:05:06;;;;;;;1.83;1.73;;;;;;;;;;5080487;28;20211;-86
2021/06/12 00:07:33;;;;;;;2.72;2.53;;;;;;;;;;5081129;28;20193;-86
2021/06/12 00:10:01;;;;;;;2.13;1.92;;;;;;;;;;5080685;28;20221;-86
2021/06/12 00:12:28;;;;;;;1.67;1.58;;;;;;;;;;5080688;28;20198;-88
2021/06/12 00:14:56;;;;;;;1.75;1.65;;;;;;;;;;5080420;28;20213;-86
2021/06/12 00:17:24;;;;;;;2.08;1.98;;;;;;;;;;5080620;28;20204;-87
2021/06/12 00:19:51;;;;;;;1.90;1.40;;;;;;;;;;5079185;28;20217;-85
2021/06/12 00:22:18;;;;;;;3.10;2.08;;;;;;;;;;5080828;28;20257;-86
2021/06/12 00:24:45;;;;;;;1.90;1.80;;;;;;;;;;5080845;28;20602;-87
2021/06/12 00:27:12;;;;;;;1.80;1.60;;;;;;;;;;5080521;28;20211;-86
2021/06/12 00:29:39;;;;;;;1.42;1.33;;;;;;;;;;5080898;28;20221;-87
2021/06/12 00:32:07;;;;;;;1.95;1.85;;;;;;;;;;5080675;28;20273;-86
2021/06/12 00:34:35;;;;;;;2.25;2.15;;;;;;;;;;5079946;28;20228;-86
2021/06/12 00:37:02;;;;;;;1.85;1.75;;;;;;;;;;5079648;28;20223;-86
2021/06/12 00:39:29;;;;;;;2.05;1.90;;;;;;;;;;5080867;28;20653;-86
2021/06/12 00:41:56;;;;;;;2.08;1.98;;;;;;;;;;5081426;28;20197;-86
2021/06/12 00:44:23;;;;;;;2.20;2.10;;;;;;;;;;5079736;28;20219;-87
2021/06/12 00:46:50;;;;;;;2.50;2.30;;;;;;;;;;5081800;28;20209;-86
2021/06/12 00:49:19;;;;;;;2.75;2.55;;;;;;;;;;5076754;28;20262;-87
2021/06/12 00:51:48;;;;;;;3.38;2.83;;;;;;;;;;5071246;28;20581;-88
2021/06/12 00:54:15;;;;;;;2.78;2.58;;;;;;;;;;5070564;28;20589;-88
2021/06/12 00:56:42;;;;;;;2.80;2.60;;;;;;;;;;5071494;28;20242;-87
2021/06/12 00:59:09;;;;;;;2.90;2.70;;;;;;;;;;5070724;28;20282;-88
2021/06/12 01:01:36;;;;;;;3.42;2.70;;;;;;;;;;5071493;28;20196;-87
2021/06/12 01:04:03;;;;;;;2.60;2.40;;;;;;;;;;5071303;28;20200;-87
2021/06/12 01:06:29;;;;;;;2.88;2.58;;;;;;;;;;5071408;28;20207;-87
2021/06/12 01:08:58;;;;;;;3.90;3.00;;;;;;;;;;5071007;28;20227;-87
2021/06/12 01:11:25;;;;;;;2.83;2.63;;;;;;;;;;5070907;28;20208;-86
2021/06/12 01:14:00;;;;;;;3.08;2.88;;;;;;;;;;5070776;28;20228;-87
2021/06/12 01:16:35;;;;;;;2.20;2.10;;;;;;;;;;5070835;28;20258;-87
2021/06/12 01:19:12;;;;;;;2.88;2.67;;;;;;;;;;5070897;28;20314;-87
2021/06/12 01:21:44;;;;;;;2.70;2.50;;;;;;;;;;5070678;28;20434;-86
2021/06/12 01:24:36;;;;;;;3.10;2.85;;;;;;;;;;5070626;28;20205;-87
2021/06/12 01:27:27;;;;;;;3.13;2.78;;;;;;;;;;5070830;28;20296;-86
2021/06/12 01:30:08;;;;;;;3.08;2.85;;;;;;;;;;5069994;28;20224;-87
2021/06/12 01:32:38;;;;;;;3.33;3.13;;;;;;;;;;5070733;28;20253;-86
2021/06/12 01:35:10;;;;;;;2.88;2.67;;;;;;;;;;5070381;28;20225;-87
2021/06/12 01:37:39;;;;;;;3.25;3.03;;;;;;;;;;5070321;28;20208;-86
2021/06/12 01:40:09;;;;;;;3.45;3.22;;;;;;;;;;5070627;28;20225;-87
2021/06/12 01:42:38;;;;;;;3.65;3.33;;;;;;;;;;5070477;28;20212;-87
2021/06/12 01:45:08;;;;;;;2.70;2.50;;;;;;;;;;5069941;28;20585;-87
2021/06/12 01:47:35;;;;;;;4.30;3.92;;;;;;;;;;5070400;28;20189;-87
2021/06/12 01:50:05;;;;;;;4.03;3.65;;;;;;;;;;5070213;28;20631;-87
2021/06/12 01:52:33;;;;;;;3.55;3.25;;;;;;;;;;5070258;28;20197;-87
2021/06/12 01:55:03;;;;;;;4.15;3.85;;;;;;;;;;5070131;28;20281;-87
2021/06/12 01:57:30;;;;;;;4.22;3.83;;;;;;;;;;5073024;28;20205;-86
2021/06/12 01:59:58;;;;;;;3.85;3.45;;;;;;;;;;5074265;28;20221;-87
2021/06/12 02:02:27;;;;;;;3.92;3.55;;;;;;;;;;5074481;28;20226;-87
2021/06/12 02:04:55;;;;;;;2.90;2.70;;;;;;;;;;5074176;28;20722;-87
2021/06/12 02:07:22;;;;;;;3.13;2.83;;;;;;;;;;5073790;28;20666;-87
2021/06/12 02:09:51;;;;;;;2.90;2.70;;;;;;;;;;5074078;28;20217;-87
2021/06/12 02:12:20;;;;;;;3.50;3.20;;;;;;;;;;5074315;28;20296;-87
2021/06/12 02:14:47;;;;;;;3.40;3.10;;;;;;;;;;5074025;28;20221;-87
2021/06/12 02:17:14;;;;;;;3.47;3.17;;;;;;;;;;5074438;28;20715;-86
2021/06/12 02:19:43;;;;;;;3.53;3.13;;;;;;;;;;5074342;28;20213;-87
2021/06/12 02:22:10;;;;;;;4.00;3.70;;;;;;;;;;5073448;28;20207;-86
2021/06/12 02:24:38;;;;;;;3.10;2.90;;;;;;;;;;5073918;28;20182;-87
2021/06/12 02:27:06;;;;;;;4.55;4.15;;;;;;;;;;5074090;28;20670;-87
2021/06/12 02:29:34;;;;;;;4.18;3.85;;;;;;;;;;5073627;28;20612;-87
2021/06/12 02:32:05;;;;;;;2.95;2.72;;;;;;;;;;5072684;28;20266;-87
2021/06/12 02:34:33;;;;;;;3.38;3.13;;;;;;;;;;5072624;28;20690;-87
2021/06/12 02:37:04;;;;;;;3.75;3.40;;;;;;;;;;5073698;28;20205;-86
2021/06/12 02:39:31;;;;;;;3.80;3.50;;;;;;;;;;5073659;28;20217;-87
2021/06/12 02:41:58;;;;;;;3.25;3.05;;;;;;;;;;5073481;28;20209;-87
2021/06/12 02:44:24;;;;;;;3.05;2.85;;;;;;;;;;5073477;28;20666;-87
2021/06/12 02:46:52;;;;;;;3.30;3.00;;;;;;;;;;5073251;28;20686;-87
2021/06/12 02:49:20;;;;;;;3.40;3.10;;;;;;;;;;5072744;28;20217;-87
2021/06/12 02:51:53;;;;;;;3.00;2.78;;;;;;;;;;5073311;28;20209;-87
2021/06/12 02:54:23;;;;;;;2.67;2.47;;;;;;;;;;5073199;28;20221;-87
2021/06/12 02:56:51;;;;;;;3.08;2.80;;;;;;;;;;5073632;28;20211;-87
2021/06/12 02:59:19;;;;;;;3.45;3.25;;;;;;;;;;5073290;28;20227;-86
2021/06/12 03:01:47;;;;;;;3.08;2.85;;;;;;;;;;5073650;28;20205;-88
2021/06/12 03:04:16;;;;;;;3.17;2.88;;;;;;;;;;5073676;28;20205;-87
2021/06/12 03:06:45;;;;;;;2.33;2.13;;;;;;;;;;5074248;28;20189;-86
2021/06/12 03:09:13;;;;;;;3.13;2.83;;;;;;;;;;5074197;28;20476;-87
2021/06/12 03:11:42;;;;;;;2.90;2.60;;;;;;;;;;5073220;28;20204;-87
2021/06/12 03:14:10;;;;;;;2.80;2.60;;;;;;;;;;5073024;28;20710;-86
2021/06/12 03:16:38;;;;;;;2.08;1.98;;;;;;;;;;5073435;28;20216;-87
2021/06/12 03:19:06;;;;;;;2.45;2.25;;;;;;;;;;5073410;28;20217;-86
2021/06/12 03:21:34;;;;;;;3.10;2.90;;;;;;;;;;5073145;28;20201;-87
2021/06/12 03:24:01;;;;;;;2.92;2.72;;;;;;;;;;5073034;28;20181;-86
2021/06/12 03:26:28;;;;;;;2.47;2.35;;;;;;;;;;5073188;28;20661;-87
2021/06/12 03:28:57;;;;;;;3.08;2.88;;;;;;;;;;5072789;28;20227;-86
2021/06/12 03:31:24;;;;;;;2.90;2.60;;;;;;;;;;5073075;28;20226;-86
2021/06/12 03:33:52;;;;;;;3.05;2.85;;;;;;;;;;5072595;28;20278;-87
2021/06/12 03:36:19;;;;;;;2.97;2.70;;;;;;;;;;5073382;28;20543;-86
2021/06/12 03:38:46;;;;;;;2.40;2.20;;;;;;;;;;5073082;28;20221;-87
2021/06/12 03:41:13;;;;;;;2.28;2.17;;;;;;;;;;5073609;28;20196;-87
2021/06/12 03:43:40;;;;;;;3.25;2.00;;;;;;;;;;5071857;28;20205;-87
2021/06/12 03:46:08;;;;;;;2.60;2.40;;;;;;;;;;5072672;28;20207;-87
2021/06/12 03:48:38;;;;;;;2.80;2.60;;;;;;;;;;5072528;28;21179;-87
2021/06/12 03:51:05;;;;;;;2.03;1.92;;;;;;;;;;5072386;28;20221;-87
2021/06/12 03:53:43;;;;;;;2.60;2.40;;;;;;;;;;5072077;28;20193;-86
2021/06/12 03:56:12;;;;;;;2.50;2.30;;;;;;;;;;5072344;28;20213;-86
2021/06/12 03:58:39;;;;;;;2.85;2.65;;;;;;;;;;5072421;28;20582;-86
2021/06/12 04:01:08;;;;;;;2.58;2.38;;;;;;;;;;5072644;28;20204;-87
2021/06/12 04:03:35;;;;;;;2.50;2.30;;;;;;;;;;5072493;28;20213;-87
2021/06/12 04:06:01;;;;;;;2.28;2.10;;;;;;;;;;5072336;28;20204;-87
2021/06/12 04:08:28;;;;;;;2.05;1.95;;;;;;;;;;5072587;28;20564;-86
2021/06/12 04:10:56;;;;;;;1.67;1.58;;;;;;;;;;5072420;28;20283;-86
2021/06/12 04:13:25;;;;;;;1.67;1.58;;;;;;;;;;5072136;28;20194;-86
2021/06/12 04:15:53;;;;;;;2.13;2.03;;;;;;;;;;5072356;28;20224;-87
2021/06/12 04:18:22;;;;;;;2.67;2.30;;;;;;;;;;5071945;28;20247;-87
2021/06/12 04:20:49;;;;;;;2.70;2.50;;;;;;;;;;5072448;28;20211;-87
2021/06/12 04:23:16;;;;;;;2.15;2.00;;;;;;;;;;5072526;28;20201;-87
2021/06/12 04:25:43;;;;;;;1.67;1.58;;;;;;;;;;5072779;28;20208;-87
2021/06/12 04:28:10;;;;;;;2.05;1.88;;;;;;;;;;5072579;28;20236;-87
2021/06/12 04:30:37;;;;;;;1.85;1.75;;;;;;;;;;5072560;28;20249;-86
2021/06/12 04:33:05;;;;;;;1.80;1.70;;;;;;;;;;5071773;28;20204;-86
2021/06/12 04:35:34;;;;;;;2.40;2.20;;;;;;;;;;5071748;28;20225;-87
2021/06/12 04:38:01;;;;;;;2.22;2.03;;;;;;;;;;5073002;28;20185;-86
2021/06/12 04:40:30;;;;;;;1.80;1.70;;;;;;;;;;5072986;28;20197;-88
2021/06/12 04:42:57;;;;;;;1.75;1.65;;;;;;;;;;5073560;28;20207;-86
2021/06/12 04:45:25;;;;;;;1.83;1.73;;;;;;;;;;5072587;28;20203;-87
2021/06/12 04:47:52;;;;;;;1.60;1.50;;;;;;;;;;5073064;28;20235;-86
2021/06/12 04:50:19;;;;;;;4.05;2.50;;;;;;;;;;5072226;28;20315;-86
2021/06/12 04:52:48;;;;;;;1.63;1.52;;;;;;;;;;5073142;28;20201;-88
2021/06/12 04:55:15;;;;;;;1.60;1.50;;;;;;;;;;5072816;28;20220;-87
2021/06/12 04:57:42;;;;;;;1.63;1.50;;;;;;;;;;5073467;28;20287;-87
2021/06/12 05:00:12;;;;;;;2.20;2.00;;;;;;;;;;5073432;28;20645;-87
2021/06/12 05:02:39;;;;;;;1.40;1.38;;;;;;;;;;5073259;28;20181;-87
2021/06/12 05:05:07;;;;;;;1.95;1.75;;;;;;;;;;5073221;28;20212;-86
2021/06/12 05:07:34;;;;;;;1.67;1.58;;;;;;;;;;5072905;28;20551;-86
2021/06/12 05:10:04;;;;;;;3.38;1.88;;;;;;;;;;5072471;28;20296;-87
2021/06/12 05:12:31;;;;;;;1.83;1.73;;;;;;;;;;5073656;28;20219;-87
2021/06/12 05:15:00;;;;;;;1.88;1.77;;;;;;;;;;5073532;28;20225;-87
2021/06/12 05:17:27;;;;;;;1.42;1.33;;;;;;;;;;5077383;28;20205;-87
2021/06/12 05:19:54;;;;;;;2.53;1.58;;;;;;;;;;5079043;28;20224;-86
2021/06/12 05:22:22;;;;;;;1.92;1.83;;;;;;;;;;5072800;28;20197;-88
2021/06/12 05:24:49;;;;;;;1.83;1.38;;;;;;;;;;5073012;28;20742;-87
2021/06/12 05:27:18;;;;;;;1.50;1.40;;;;;;;;;;5073310;28;20250;-88
2021/06/12 05:29:46;;;;;;;2.03;1.92;;;;;;;;;;5073561;28;20654;-86
2021/06/12 05:32:13;;;;;;;1.70;1.60;;;;;;;;;;5082671;28;20197;-87
2021/06/12 05:34:40;;;;;;;1.67;1.58;;;;;;;;;;5082369;28;20208;-86
2021/06/12 05:37:08;;;;;;;2.20;2.00;;;;;;;;;;5080072;28;20261;-87
2021/06/12 05:39:35;;;;;;;1.20;1.20;;;;;;;;;;5079748;28;20219;-87
2021/06/12 05:42:02;;;;;;;1.70;1.60;;;;;;;;;;5078618;28;20200;-87
2021/06/12 05:44:30;;;;;;;2.03;1.83;;;;;;;;;;5079012;28;20685;-87
2021/06/12 05:46:57;;;;;;;1.60;1.50;;;;;;;;;;5080403;28;20189;-88
2021/06/12 05:49:24;;;;;;;1.40;1.30;;;;;;;;;;5074450;28;20274;-87
2021/06/12 05:51:52;;;;;;;1.35;1.33;;;;;;;;;;5074546;28;20185;-87
2021/06/12 05:54:19;;;;;;;2.38;2.17;;;;;;;;;;5074195;28;20201;-88
2021/06/12 05:56:46;;;;;;;4.40;1.85;;;;;;;;;;5074403;28;20225;-87
2021/06/12 05:59:13;;;;;;;2.15;2.05;;;;;;;;;;5073897;28;20262;-88
2021/06/12 06:01:41;;;;;;;1.85;1.75;;;;;;;;;;5073695;28;20197;-87
2021/06/12 06:04:08;;;;;;;1.88;1.77;;;;;;;;;;5073783;28;20193;-87
2021/06/12 06:06:35;;;;;;;2.08;1.88;;;;;;;;;;5073639;28;20207;-87
2021/06/12 06:09:03;;;;;;;1.60;1.50;;;;;;;;;;5073640;28;20726;-87
2021/06/12 06:11:30;;;;;;;1.20;1.20;;;;;;;;;;5073466;28;20211;-88
2021/06/12 06:13:57;;;;;;;1.55;1.45;;;;;;;;;;5073159;28;20255;-87
2021/06/12 06:16:24;;;;;;;1.40;1.25;;;;;;;;;;5073283;28;20225;-88
2021/06/12 06:18:53;;;;;;;1.27;1.27;;;;;;;;;;5073052;28;20225;-87
2021/06/12 06:21:20;;;;;;;1.40;1.30;;;;;;;;;;5072976;28;20674;-87
2021/06/12 06:23:47;;;;;;;1.67;1.58;;;;;;;;;;5073168;28;20236;-88
2021/06/12 06:26:14;;;;;;;1.83;1.73;;;;;;;;;;5074422;28;20288;-88
2021/06/12 06:28:41;;;;;;;1.38;1.30;;;;;;;;;;5073361;28;20308;-87
2021/06/12 06:31:08;;;;;;;1.45;1.35;;;;;;;;;;5073464;28;20189;-88
2021/06/12 06:33:35;;;;;;;1.67;1.58;;;;;;;;;;5073588;28;20189;-88
2021/06/12 06:36:03;;;;;;;1.95;1.85;;;;;;;;;;5073051;28;20275;-87
2021/06/12 06:38:30;;;;;;;1.40;1.30;;;;;;;;;;5073781;28;20635;-87
2021/06/12 06:40:57;;;;;;;1.50;1.40;;;;;;;;;;5074011;28;20220;-87
2021/06/12 06:43:24;;;;;;;1.50;1.40;;;;;;;;;;5072176;28;20197;-87
2021/06/12 06:45:52;;;;;;;2.70;2.05;;;;;;;;;;5074392;28;20178;-87
2021/06/12 06:48:18;;;;;;;1.83;1.73;;;;;;;;;;5073704;28;20213;-87
2021/06/12 06:50:46;;;;;;;2.10;2.00;;;;;;;;;;5073172;28;20324;-87
2021/06/12 06:53:15;;;;;;;1.50;1.40;;;;;;;;;;5072768;28;20578;-87
2021/06/12 06:55:42;;;;;;;1.70;1.60;;;;;;;;;;5072100;28;20267;-87
2021/06/12 06:58:09;;;;;;;1.38;1.30;;;;;;;;;;5071925;28;20201;-86
2021/06/12 07:00:36;;;;;;;2.08;1.98;;;;;;;;;;5072205;28;20207;-87
2021/06/12 07:03:04;;;;;;;1.95;1.85;;;;;;;;;;5072047;28;20618;-87
2021/06/12 07:05:31;;;;;;;1.40;1.30;;;;;;;;;;5071403;28;20204;-87
2021/06/12 07:07:59;;;;;;;1.75;1.65;;;;;;;;;;5071796;28;20207;-87
2021/06/12 07:10:27;;;;;;;2.22;1.90;;;;;;;;;;5088853;28;20207;-87
2021/06/12 07:13:00;;;;;;;1.83;1.73;;;;;;;;;;5091637;28;20203;-87
2021/06/12 07:15:27;;;;;;;1.75;1.65;;;;;;;;;;5092050;28;20220;-87
2021/06/12 07:17:54;;;;;;;1.55;1.45;;;;;;;;;;5091749;28;20208;-87
2021/06/12 07:20:23;;;;;;;1.90;1.80;;;;;;;;;;5091635;28;20293;-87
2021/06/12 07:22:50;;;;;;;2.00;1.90;;;;;;;;;;5092059;28;20352;-87
2021/06/12 07:25:17;;;;;;;1.85;1.75;;;;;;;;;;5091764;28;20208;-87
2021/06/12 07:27:46;;;;;;;1.83;1.73;;;;;;;;;;5091880;28;20748;-86
2021/06/12 07:30:15;;;;;;;1.92;1.83;;;;;;;;;;5093133;28;20217;-87
2021/06/12 07:32:42;;;;;;;1.98;1.77;;;;;;;;;;5092140;28;20200;-87
2021/06/12 07:35:10;;;;;;;1.70;1.60;;;;;;;;;;5091122;28;20265;-87
2021/06/12 07:37:37;;;;;;;2.22;2.13;;;;;;;;;;5091215;28;20216;-86
2021/06/12 07:40:07;;;;;;;1.60;1.50;;;;;;;;;;5091739;28;20228;-87
2021/06/12 07:42:34;;;;;;;1.90;1.55;;;;;;;;;;5091192;28;20296;-87
2021/06/12 07:45:03;;;;;;;2.05;1.42;;;;;;;;;;5091712;28;20200;-87
2021/06/12 07:47:30;;;;;;;1.48;1.38;;;;;;;;;;5091623;28;20253;-86
2021/06/12 07:49:57;;;;;;;1.50;1.40;;;;;;;;;;5091390;28;20228;-86
2021/06/12 07:52:24;;;;;;;2.03;1.92;;;;;;;;;;5091544;28;20226;-86
2021/06/12 07:54:51;;;;;;;1.77;1.52;;;;;;;;;;5090500;28;20204;-86
2021/06/12 07:57:18;;;;;;;1.50;1.40;;;;;;;;;;5091472;28;20311;-86
2021/06/12 07:59:45;;;;;;;1.30;1.25;;;;;;;;;;5091449;28;20224;-86
2021/06/12 08:02:13;;;;;;;1.45;1.35;;;;;;;;;;5091901;28;20205;-86
2021/06/12 08:04:40;;;;;;;2.22;1.38;;;;;;;;;;5091384;28;20654;-87
2021/06/12 08:07:07;;;;;;;1.15;1.15;;;;;;;;;;5091687;28;20202;-86
2021/06/12 08:09:34;;;;;;;1.95;1.30;;;;;;;;;;5091436;28;20227;-87
2021/06/12 08:12:02;;;;;;;1.60;1.50;;;;;;;;;;5092045;28;20583;-87
2021/06/12 08:14:29;;;;;;;1.30;1.20;;;;;;;;;;5091743;28;20557;-86
2021/06/12 08:16:55;;;;;;;1.35;1.25;;;;;;;;;;5091384;28;20697;-86
2021/06/12 08:19:24;;;;;;;1.02;1.02;;;;;;;;;;5091294;28;20231;-86
2021/06/12 08:21:51;;;;;;;1.10;1.10;;;;;;;;;;5092218;28;20205;-87
2021/06/12 08:24:18;;;;;;;1.13;1.10;;;;;;;;;;5090768;28;20205;-86
2021/06/12 08:26:45;;;;;;;1.00;1.00;;;;;;;;;;5091896;28;20200;-86
2021/06/12 08:29:12;;;;;;;1.15;1.10;;;;;;;;;;5091634;28;20220;-85
2021/06/12 08:31:39;;;;;;;1.45;1.42;;;;;;;;;;5091561;28;20207;-86
2021/06/12 08:34:06;;;;;;;1.98;1.30;;;;;;;;;;5091289;28;20200;-87
2021/06/12 08:36:35;;;;;;;1.50;1.40;;;;;;;;;;5091456;28;20717;-87
2021/06/12 08:39:02;;;;;;;1.60;1.50;;;;;;;;;;5090657;28;20220;-87
2021/06/12 08:41:29;;;;;;;2.83;1.85;;;;;;;;;;5090691;28;20203;-87
2021/06/12 08:43:59;;;;;;;1.35;1.25;;;;;;;;;;5090765;28;20272;-86
2021/06/12 08:46:29;;;;;;;1.33;1.23;;;;;;;;;;5090407;28;20610;-86
2021/06/12 08:48:57;;;;;;;1.98;1.40;;;;;;;;;;5090679;28;20303;-86
2021/06/12 08:51:24;;;;;;;1.48;1.38;;;;;;;;;;5090053;28;20292;-86
2021/06/12 08:53:53;;;;;;;1.55;1.45;;;;;;;;;;5089729;28;20196;-86
2021/06/12 08:56:20;;;;;;;1.63;1.55;;;;;;;;;;5090321;28;20227;-87
2021/06/12 08:58:47;;;;;;;1.60;1.50;;;;;;;;;;5090530;28;20278;-87
2021/06/12 09:01:14;;;;;;;1.75;1.60;;;;;;;;;;5090566;28;20206;-86
2021/06/12 09:03:42;;;;;;;1.70;1.60;;;;;;;;;;5090768;28;20200;-84
2021/06/12 09:06:10;;;;;;;1.60;1.50;;;;;;;;;;5092831;28;20209;-85
2021/06/12 09:08:40;;;;;;;2.30;1.35;;;;;;;;;;5094356;28;20592;-85
2021/06/12 09:11:10;;;;;;;1.33;1.23;;;;;;;;;;5094301;28;20295;-86
2021/06/12 09:13:48;;;;;;;1.60;1.50;;;;;;;;;;5094523;28;20632;-85
2021/06/12 09:16:25;;;;;;;1.30;1.30;;;;;;;;;;5095530;28;20284;-86
2021/06/12 09:18:54;;;;;;;1.40;1.30;;;;;;;;;;5095218;28;20716;-86
2021/06/12 09:21:31;;;;;;;1.42;1.33;;;;;;;;;;5094787;28;20208;-85
2021/06/12 09:23:59;;;;;;;1.00;1.00;;;;;;;;;;5094689;28;20218;-86
2021/06/12 09:26:49;;;;;;;1.38;1.30;;;;;;;;;;5095430;28;20204;-86
2021/06/12 09:29:19;;;;;;;1.15;1.08;;;;;;;;;;5094403;28;20273;-86
2021/06/12 09:31:48;;;;;;;1.40;1.30;;;;;;;;;;5094426;28;20200;-85
2021/06/12 09:34:18;;;;;;;1.30;1.30;;;;;;;;;;5095293;28;20200;-86
2021/06/12 09:36:46;;;;;;;1.40;1.30;;;;;;;;;;5094599;28;20220;-86
2021/06/12 09:39:17;;;;;;;1.38;1.30;;;;;;;;;;5094651;28;20224;-85
2021/06/12 09:41:47;;;;;;;1.33;1.30;;;;;;;;;;5094388;28;20200;-86
2021/06/12 09:44:31;;;;;;;1.23;1.23;;;;;;;;;;5093854;28;20587;-86
2021/06/12 09:46:59;;;;;;;1.42;1.38;;;;;;;;;;5094011;28;20196;-85
2021/06/12 09:49:37;;;;;;;1.45;1.40;;;;;;;;;;5093273;28;20739;-85
2021/06/12 09:52:10;;;;;;;1.80;1.70;;;;;;;;;;5094248;28;20204;-85
2021/06/12 09:54:40;;;;;;;1.33;1.23;;;;;;;;;;5093765;28;20203;-86
2021/06/12 09:57:55;;;;;;;1.15;1.15;;;;;;;;;;5095341;28;20723;-86
2021/06/12 10:00:35;;;;;;;1.85;1.75;;;;;;;;;;5046579;28;20215;-86
2021/06/12 10:03:04;;;;;;;1.65;1.55;;;;;;;;;;5094046;28;20211;-86
2021/06/12 10:05:31;;;;;;;1.60;1.50;;;;;;;;;;5102265;28;20188;-85
2021/06/12 10:07:58;;;;;;;1.55;1.45;;;;;;;;;;5093587;28;20197;-85
2021/06/12 10:10:25;;;;;;;1.52;1.42;;;;;;;;;;5094776;28;20261;-86
2021/06/12 10:12:54;;;;;;;1.70;1.60;;;;;;;;;;5093308;28;20204;-85
2021/06/12 10:15:22;;;;;;;1.70;1.60;;;;;;;;;;5092771;28;20616;-86
2021/06/12 10:17:51;;;;;;;1.08;1.08;;;;;;;;;;5091988;28;20249;-85
2021/06/12 10:20:20;;;;;;;4.13;2.15;;;;;;;;;;5092675;28;20247;-86
2021/06/12 10:22:49;;;;;;;1.90;1.80;;;;;;;;;;5092973;28;20207;-85
2021/06/12 10:25:18;;;;;;;1.58;1.48;;;;;;;;;;5092641;28;20208;-86
2021/06/12 10:27:45;;;;;;;1.90;1.63;;;;;;;;;;5093243;28;20208;-86
2021/06/12 10:30:20;;;;;;;2.15;1.90;;;;;;;;;;5093147;28;20226;-86
2021/06/12 10:32:50;;;;;;;2.20;2.10;;;;;;;;;;5092966;28;20192;-86
2021/06/12 10:35:20;;;;;;;1.83;1.73;;;;;;;;;;5092509;28;20581;-86
2021/06/12 10:37:58;;;;;;;2.03;1.70;;;;;;;;;;5092904;28;20250;-85
2021/06/12 10:40:45;;;;;;;1.60;1.50;;;;;;;;;;5093001;28;20306;-86
2021/06/12 10:43:16;;;;;;;2.00;1.90;;;;;;;;;;5093129;28;20244;-85
2021/06/12 10:45:47;;;;;;;2.55;2.35;;;;;;;;;;5093062;28;20196;-86
2021/06/12 10:48:43;;;;;;;1.92;1.83;;;;;;;;;;5093001;28;20677;-86
2021/06/12 10:51:12;;;;;;;2.33;2.13;;;;;;;;;;5092300;28;20331;-86
2021/06/12 10:53:42;;;;;;;2.08;1.98;;;;;;;;;;5092210;28;20580;-86
2021/06/12 10:56:11;;;;;;;1.90;1.80;;;;;;;;;;5092577;28;20200;-86
2021/06/12 10:58:49;;;;;;;2.20;2.10;;;;;;;;;;5092252;28;20228;-86
2021/06/12 11:01:22;;;;;;;2.28;1.98;;;;;;;;;;5092300;28;20291;-85
2021/06/12 11:04:00;;;;;;;1.90;1.80;;;;;;;;;;5091667;28;20270;-85
2021/06/12 11:06:43;;;;;;;2.80;2.60;;;;;;;;;;5092446;28;20197;-85
2021/06/12 11:09:40;;;;;;;2.10;2.00;;;;;;;;;;5092215;28;20265;-86
2021/06/12 11:12:34;;;;;;;2.00;1.90;;;;;;;;;;5091879;28;20684;-86
2021/06/12 11:15:05;;;;;;;2.00;1.90;;;;;;;;;;5091731;28;20240;-85
2021/06/12 11:17:33;;;;;;;2.00;1.90;;;;;;;;;;5092087;28;20226;-85
2021/06/12 11:20:28;;;;;;;2.30;2.10;;;;;;;;;;5091840;28;20228;-86
2021/06/12 11:22:58;;;;;;;1.95;1.85;;;;;;;;;;5092131;28;20211;-86
2021/06/12 11:25:56;;;;;;;2.20;2.10;;;;;;;;;;5091747;28;20215;-85
2021/06/12 11:28:36;;;;;;;2.47;2.28;;;;;;;;;;5091397;28;20216;-86
2021/06/12 11:31:29;;;;;;;2.47;2.30;;;;;;;;;;5092094;28;20283;-86
2021/06/12 11:34:22;;;;;;;2.35;2.17;;;;;;;;;;5091377;28;20700;-85
2021/06/12 11:37:12;;;;;;;2.60;2.40;;;;;;;;;;5091651;28;20590;-86
2021/06/12 11:39:59;;;;;;;2.80;2.60;;;;;;;;;;5091332;28;20276;-86
2021/06/12 11:42:40;;;;;;;3.22;3.03;;;;;;;;;;5091659;28;20211;-86
2021/06/12 11:45:19;;;;;;;4.20;3.80;;;;;;;;;;5091297;28;20189;-85
2021/06/12 11:47:47;;;;;;;3.47;3.28;;;;;;;;;;5091446;28;20210;-86
2021/06/12 11:50:15;;;;;;;3.97;3.67;;;;;;;;;;5091690;28;20227;-86
2021/06/12 11:52:44;;;;;;;3.92;3.55;;;;;;;;;;5091496;28;20208;-85
2021/06/12 11:55:16;;;;;;;3.40;3.10;;;;;;;;;;5090918;28;20681;-85
2021/06/12 11:57:45;;;;;;;4.03;3.72;;;;;;;;;;5091618;28;20269;-85
2021/06/12 12:00:30;;;;;;;3.47;3.28;;;;;;;;;;5091841;28;20318;-86
2021/06/12 12:03:07;;;;;;;3.67;3.38;;;;;;;;;;5091136;28;20270;-85
2021/06/12 12:05:38;;;;;;;3.85;3.55;;;;;;;;;;5090774;28;20205;-86
2021/06/12 12:08:09;;;;;;;3.95;3.55;;;;;;;;;;5091043;28;20192;-86
2021/06/12 12:10:36;;;;;;;3.58;3.38;;;;;;;;;;5091450;28;20208;-88
2021/06/12 12:13:04;;;;;;;3.63;3.42;;;;;;;;;;5091307;28;20192;-87
2021/06/12 12:15:36;;;;;;;3.70;3.40;;;;;;;;;;5090579;28;20579;-87
2021/06/12 12:18:04;;;;;;;3.15;2.95;;;;;;;;;;5090794;28;20246;-86
2021/06/12 12:20:39;;;;;;;3.15;2.95;;;;;;;;;;5091048;28;20196;-87
2021/06/12 12:23:28;;;;;;;3.20;3.00;;;;;;;;;;5091182;28;20750;-85
2021/06/12 12:26:07;;;;;;;3.78;3.47;;;;;;;;;;5087264;28;20207;-85
2021/06/12 12:28:49;;;;;;;3.60;3.30;;;;;;;;;;5092449;28;20247;-86
2021/06/12 12:31:16;;;;;;;3.15;2.95;;;;;;;;;;5090592;28;20208;-86
2021/06/12 12:33:47;;;;;;;3.55;3.22;;;;;;;;;;5091935;28;20227;-85
2021/06/12 12:36:16;;;;;;;4.18;3.78;;;;;;;;;;5091855;28;20569;-86
2021/06/12 12:38:44;;;;;;;3.28;2.97;;;;;;;;;;5090921;28;20232;-87
2021/06/12 12:41:12;;;;;;;4.32;3.95;;;;;;;;;;5090375;28;20199;-86
2021/06/12 12:43:39;;;;;;;3.72;3.47;;;;;;;;;;5090348;28;20272;-85
2021/06/12 12:46:08;;;;;;;2.95;2.75;;;;;;;;;;5090850;28;20732;-86
2021/06/12 12:48:38;;;;;;;2.88;2.67;;;;;;;;;;5092311;28;20257;-86
2021/06/12 12:51:05;;;;;;;3.33;3.13;;;;;;;;;;5090384;28;20305;-86
2021/06/12 12:53:40;;;;;;;3.22;3.03;;;;;;;;;;5092247;28;20227;-86
2021/06/12 12:56:08;;;;;;;3.83;3.53;;;;;;;;;;5092424;28;20241;-86
2021/06/12 12:58:37;;;;;;;3.10;2.80;;;;;;;;;;5092180;28;20682;-86
2021/06/12 13:01:09;;;;;;;2.30;2.20;;;;;;;;;;5092149;28;20188;-87
2021/06/12 13:03:43;;;;;;;2.22;2.13;;;;;;;;;;5092229;28;20630;-87
2021/06/12 13:06:33;;;;;;;2.38;2.28;;;;;;;;;;5091839;28;20236;-87
2021/06/12 13:09:10;;;;;;;2.45;2.25;;;;;;;;;;5092363;28;20232;-85
2021/06/12 13:11:45;;;;;;;1.80;1.70;;;;;;;;;;5092059;28;20200;-86
2021/06/12 13:14:24;;;;;;;2.90;2.65;;;;;;;;;;5091923;28;20192;-86
2021/06/12 13:17:06;;;;;;;3.45;3.15;;;;;;;;;;5092641;28;20200;-86
2021/06/12 13:19:35;;;;;;;2.40;2.20;;;;;;;;;;5092136;28;20220;-86
2021/06/12 13:22:03;;;;;;;3.78;3.38;;;;;;;;;;5094343;28;20253;-85
2021/06/12 13:24:31;;;;;;;2.53;2.33;;;;;;;;;;5092808;28;20196;-86
2021/06/12 13:26:59;;;;;;;3.67;3.38;;;;;;;;;;5092450;28;20208;-85
2021/06/12 13:29:28;;;;;;;2.20;2.10;;;;;;;;;;5092319;28;20220;-86
2021/06/12 13:31:55;;;;;;;2.58;2.38;;;;;;;;;;5092593;28;20573;-86
2021/06/12 13:34:29;;;;;;;2.17;2.08;;;;;;;;;;5092245;28;20196;-85
2021/06/12 13:36:57;;;;;;;2.83;2.63;;;;;;;;;;5092225;28;20208;-86
2021/06/12 13:39:37;;;;;;;2.60;2.40;;;;;;;;;;5091658;28;20678;-86
2021/06/12 13:42:13;;;;;;;3.03;2.83;;;;;;;;;;5092460;28;20197;-86
2021/06/12 13:44:45;;;;;;;3.15;2.80;;;;;;;;;;5092182;28;20218;-86
2021/06/12 13:47:12;;;;;;;2.28;2.17;;;;;;;;;;5093208;28;20196;-86
2021/06/12 13:49:39;;;;;;;2.83;2.45;;;;;;;;;;5092269;28;20292;-86
2021/06/12 13:52:07;;;;;;;2.85;2.65;;;;;;;;;;5093743;28;20284;-85
2021/06/12 13:54:35;;;;;;;3.33;2.75;;;;;;;;;;5096490;28;20185;-86
2021/06/12 13:57:02;;;;;;;3.17;2.78;;;;;;;;;;5096806;28;20667;-85
2021/06/12 13:59:29;;;;;;;2.33;2.13;;;;;;;;;;5097538;28;20636;-87
2021/06/12 14:01:56;;;;;;;2.20;2.10;;;;;;;;;;5096062;28;20681;-85
2021/06/12 14:04:23;;;;;;;2.60;2.40;;;;;;;;;;5094744;28;20205;-86
2021/06/12 14:06:50;;;;;;;2.17;1.98;;;;;;;;;;5095024;28;20200;-86
2021/06/12 14:09:17;;;;;;;2.50;2.30;;;;;;;;;;5097145;28;20212;-85
2021/06/12 14:11:45;;;;;;;2.55;2.35;;;;;;;;;;5097646;28;20200;-84
2021/06/12 14:14:12;;;;;;;2.50;2.33;;;;;;;;;;5099034;28;20211;-86
2021/06/12 14:16:39;;;;;;;2.17;2.05;;;;;;;;;;5104149;28;20222;-86
2021/06/12 14:19:06;;;;;;;2.20;2.10;;;;;;;;;;5101236;28;20231;-86
2021/06/12 14:21:33;;;;;;;3.40;2.28;;;;;;;;;;5098143;28;20200;-87
2021/06/12 14:24:00;;;;;;;2.20;2.00;;;;;;;;;;5098378;28;20173;-86
2021/06/12 14:26:29;;;;;;;1.90;1.80;;;;;;;;;;5099989;28;20234;-86
2021/06/12 14:28:59;;;;;;;1.65;1.52;;;;;;;;;;5098468;28;20216;-86
2021/06/12 14:31:26;;;;;;;1.83;1.73;;;;;;;;;;5097363;28;20211;-87
2021/06/12 14:33:53;;;;;;;2.38;2.28;;;;;;;;;;5098640;28;20200;-87
2021/06/12 14:36:20;;;;;;;2.22;2.03;;;;;;;;;;5097118;28;20204;-86
2021/06/12 14:38:47;;;;;;;1.90;1.80;;;;;;;;;;5097712;28;20273;-86
2021/06/12 14:41:14;;;;;;;2.13;1.95;;;;;;;;;;5095530;28;20259;-86
2021/06/12 14:43:42;;;;;;;2.13;1.85;;;;;;;;;;5094058;28;20257;-86
2021/06/12 14:46:10;;;;;;;2.42;1.95;;;;;;;;;;5094673;28;20215;-86
2021/06/12 14:48:37;;;;;;;1.73;1.63;;;;;;;;;;5093956;28;20270;-86
2021/06/12 14:51:04;;;;;;;2.28;2.17;;;;;;;;;;5093429;28;20220;-85
2021/06/12 14:53:31;;;;;;;2.15;1.95;;;;;;;;;;5094242;28;20544;-85
2021/06/12 14:55:58;;;;;;;2.92;2.10;;;;;;;;;;5093182;28;20204;-85
2021/06/12 14:58:25;;;;;;;1.38;1.27;;;;;;;;;;5093611;28;20216;-86